createdAt,value
2023-03-26T00:02:12.361Z,0
2023-03-26T00:12:12.903Z,0
2023-03-26T00:22:12.419Z,0
2023-03-26T00:32:12.643Z,0
2023-03-26T00:42:11.742Z,0
2023-03-26T00:52:12.219Z,0
2023-03-26T01:02:11.531Z,0
2023-03-26T01:12:13.068Z,0
2023-03-26T01:22:13.906Z,0
2023-03-26T01:32:14.224Z,0
2023-03-26T01:42:14.596Z,0
2023-03-26T01:52:14.422Z,0
2023-03-26T02:02:14.933Z,0
2023-03-26T02:12:15.428Z,0
2023-03-26T02:22:15.170Z,0
2023-03-26T02:32:15.780Z,0
2023-03-26T02:42:15.576Z,0
2023-03-26T02:52:14.842Z,0
2023-03-26T03:02:08.342Z,0
2023-03-26T03:12:08.049Z,0
2023-03-26T03:22:07.815Z,0
2023-03-26T03:32:07.732Z,0
2023-03-26T03:42:07.780Z,265
2023-03-26T03:52:07.492Z,265
2023-03-26T04:02:08.044Z,265
2023-03-26T04:12:10.027Z,265
2023-03-26T04:22:10.730Z,265
2023-03-26T04:32:11.855Z,265
2023-03-26T04:42:13.632Z,265
2023-03-26T04:52:14.553Z,265
2023-03-26T05:02:15.041Z,265
2023-03-26T05:12:28.081Z,265
2023-03-26T05:22:44.205Z,265
2023-03-26T05:33:00.560Z,265
2023-03-26T05:43:16.353Z,265
2023-03-26T05:53:33.300Z,265
2023-03-26T06:03:49.793Z,21.3
2023-03-26T06:14:07.479Z,21.3
2023-03-26T06:24:25.280Z,21.3
2023-03-26T06:34:43.440Z,21.3
2023-03-26T06:45:03.793Z,21.3
2023-03-26T06:55:23.529Z,21.3
2023-03-26T07:05:43.780Z,21.3
2023-03-26T07:16:02.920Z,21.3
2023-03-26T07:26:21.928Z,21.3
2023-03-26T07:36:41.719Z,21.3
2023-03-26T07:47:01.141Z,21.3
2023-03-26T07:57:20.739Z,21.3
2023-03-26T08:07:40.223Z,21.3
2023-03-26T08:17:59.326Z,21.3
2023-03-26T08:28:18.100Z,21.3
2023-03-26T08:38:36.573Z,21.3
2023-03-26T08:48:54.877Z,107.2
2023-03-26T08:59:13.317Z,106.4
2023-03-26T09:02:12.862Z,0
2023-03-26T09:12:31.183Z,108.7
2023-03-26T09:22:49.504Z,110.3
2023-03-26T09:33:08.537Z,115.1
2023-03-26T09:43:28.097Z,114.1
2023-03-26T09:53:46.695Z,115.1
2023-03-26T10:04:06.762Z,113.6
2023-03-26T10:14:28.077Z,114.6
2023-03-26T10:24:49.355Z,115.9
2023-03-26T10:35:10.162Z,117.1
2023-03-26T10:45:31.076Z,119.4
2023-03-26T10:55:51.707Z,118.8
2023-03-26T11:06:08.607Z,119.3
2023-03-26T11:16:27.091Z,119.3
2023-03-26T11:26:47.146Z,119.8
2023-03-26T11:37:05.093Z,121
2023-03-26T11:47:20.163Z,124.1
2023-03-26T11:57:31.772Z,126.2
2023-03-26T12:07:39.048Z,127.4
2023-03-26T12:17:42.168Z,127.6
2023-03-26T12:27:44.619Z,127.9
2023-03-26T12:37:47.186Z,127.7
2023-03-26T12:51:01.210Z,126.8
2023-03-26T13:01:03.000Z,127.3
2023-03-26T13:11:05.338Z,125.4
2023-03-26T13:21:07.689Z,126.4
2023-03-26T13:31:09.831Z,126.6
2023-03-26T13:41:12.138Z,124.1
2023-03-26T13:51:14.052Z,124.8
2023-03-26T14:01:16.126Z,122.7
2023-03-26T14:11:18.112Z,122.9
2023-03-26T14:21:20.161Z,122.2
2023-03-26T14:31:21.743Z,122.3
2023-03-26T14:41:23.004Z,121.6
2023-03-26T14:51:23.115Z,119.6
2023-03-26T15:02:09.047Z,116.6
2023-03-26T15:12:12.042Z,116.6
2023-03-26T15:22:11.552Z,114.8
2023-03-26T15:32:12.566Z,114.8
2023-03-26T15:42:12.043Z,114.8
2023-03-26T15:52:11.803Z,114.8
2023-03-26T16:02:11.869Z,114.8
2023-03-26T16:12:12.187Z,114.8
2023-03-26T16:22:12.834Z,114.8
2023-03-26T16:32:13.511Z,114.8
2023-03-26T16:42:14.708Z,114.8
2023-03-26T16:52:16.109Z,114.8
2023-03-26T17:02:17.327Z,114.8
2023-03-26T17:12:17.832Z,114.8
2023-03-26T17:22:18.078Z,114.8
2023-03-26T17:32:17.936Z,114.8
2023-03-26T17:42:17.895Z,114.8
2023-03-26T17:52:17.431Z,114.8
2023-03-26T18:02:17.536Z,114.8
2023-03-26T18:12:17.975Z,114.8
2023-03-26T18:22:17.170Z,114.8
2023-03-26T18:32:17.172Z,114.8
2023-03-26T18:42:22.712Z,114.8
2023-03-26T18:52:16.777Z,114.8
2023-03-26T19:02:16.416Z,114.8
2023-03-26T19:12:16.289Z,114.8
2023-03-26T19:22:15.123Z,114.8
2023-03-26T19:32:14.810Z,114.8
2023-03-26T19:42:14.390Z,114.8
2023-03-26T19:52:13.709Z,114.8
2023-03-26T20:02:13.557Z,114.8
2023-03-26T20:12:13.293Z,114.8
2023-03-26T20:22:13.314Z,114.8
2023-03-26T20:32:12.910Z,114.8
2023-03-26T20:42:16.082Z,114.8
2023-03-26T20:52:12.016Z,114.8
2023-03-26T21:02:07.682Z,0
2023-03-26T21:12:07.527Z,0
2023-03-26T21:22:06.958Z,0
2023-03-26T21:32:06.750Z,0
2023-03-26T21:42:06.202Z,0
2023-03-26T21:52:06.169Z,0
2023-03-26T22:02:06.258Z,0
2023-03-26T22:12:07.011Z,0
2023-03-26T22:22:07.850Z,0
2023-03-26T22:32:08.968Z,0
2023-03-26T22:42:10.122Z,0
2023-03-26T22:52:10.724Z,0
2023-03-26T23:02:11.110Z,0
2023-03-26T23:12:10.727Z,0
2023-03-26T23:22:10.844Z,0
2023-03-26T23:32:23.798Z,0
2023-03-26T23:42:10.024Z,0
2023-03-26T23:52:09.576Z,0
